Time;durP1;ratioP1;P1;durP2;ratioP2;P2;SDS_P1;SDS_P2;PMS_P1;PMS_P2;Temp;Humidity;BMP_temperature;BMP_pressure;BME280_temperature;BME280_humidity;BME280_pressure;Samples;Min_cycle;Max_cycle;Signal;HPM_P1;HPM_P2
2021/11/21 00:02:23;;;;;;;29.90;11.47;;;7.70;97.30;;;;;;5094684;28;20187;-82
2021/11/21 00:04:50;;;;;;;28.43;11.70;;;7.70;97.30;;;;;;5094776;28;20174;-82
2021/11/21 00:07:16;;;;;;;33.97;12.37;;;7.70;97.30;;;;;;5094413;28;20630;-82
2021/11/21 00:09:41;;;;;;;29.90;11.97;;;7.70;97.30;;;;;;5094598;28;20460;-82
2021/11/21 00:12:07;;;;;;;32.73;13.07;;;7.70;97.30;;;;;;5093836;28;20455;-82
2021/11/21 00:14:33;;;;;;;33.60;12.30;;;7.70;97.30;;;;;;5094367;28;20537;-83
2021/11/21 00:17:01;;;;;;;37.80;13.80;;;7.70;97.30;;;;;;5093791;28;20726;-82
2021/11/21 00:19:27;;;;;;;35.13;13.67;;;7.70;97.30;;;;;;5094439;28;20182;-82
2021/11/21 00:21:52;;;;;;;36.83;12.67;;;7.70;97.30;;;;;;5094823;28;20412;-82
2021/11/21 00:24:19;;;;;;;28.83;13.20;;;7.70;97.30;;;;;;5093957;28;20228;-83
2021/11/21 00:26:44;;;;;;;37.87;12.67;;;7.60;97.30;;;;;;5094581;28;20198;-82
2021/11/21 00:29:10;;;;;;;31.30;11.87;;;7.60;97.30;;;;;;5096040;28;20445;-82
2021/11/21 00:31:36;;;;;;;36.03;13.83;;;7.60;97.30;;;;;;5094340;28;20174;-82
2021/11/21 00:34:01;;;;;;;27.80;12.33;;;7.60;97.30;;;;;;5093871;28;20181;-83
2021/11/21 00:36:27;;;;;;;41.20;14.50;;;7.60;97.30;;;;;;5093953;28;20198;-83
2021/11/21 00:38:52;;;;;;;28.53;12.10;;;7.60;97.30;;;;;;5093611;28;20223;-83
2021/11/21 00:41:19;;;;;;;37.87;12.87;;;7.60;97.30;;;;;;5093629;28;20178;-83
2021/11/21 00:43:45;;;;;;;32.40;12.30;;;7.60;97.30;;;;;;5093620;28;20452;-83
2021/11/21 00:46:11;;;;;;;34.60;14.00;;;7.60;97.30;;;;;;5093508;28;20431;-83
2021/11/21 00:48:38;;;;;;;34.43;12.93;;;7.60;97.30;;;;;;5093405;28;20419;-83
2021/11/21 00:51:04;;;;;;;34.27;11.87;;;7.60;97.30;;;;;;5093197;28;20874;-84
2021/11/21 00:53:31;;;;;;;33.47;13.53;;;7.60;97.30;;;;;;5094892;28;20417;-81
2021/11/21 00:56:04;;;;;;;33.47;13.07;;;7.60;97.30;;;;;;5098348;28;21020;-81
2021/11/21 00:58:31;;;;;;;35.70;12.40;;;7.50;97.30;;;;;;5098529;28;20459;-81
2021/11/21 01:00:57;;;;;;;41.13;13.10;;;7.50;97.30;;;;;;5098304;28;20412;-81
2021/11/21 01:03:24;;;;;;;33.27;12.57;;;7.50;97.30;;;;;;5100186;28;20400;-81
2021/11/21 01:05:52;;;;;;;30.10;13.50;;;7.50;97.30;;;;;;5098089;28;20201;-80
2021/11/21 01:08:18;;;;;;;34.53;14.20;;;7.50;97.30;;;;;;5097881;28;20432;-82
2021/11/21 01:10:46;;;;;;;32.70;12.30;;;7.50;97.30;;;;;;5098510;28;20500;-81
2021/11/21 01:13:13;;;;;;;37.10;14.80;;;7.50;97.30;;;;;;5098072;28;20990;-81
2021/11/21 01:15:39;;;;;;;33.73;12.60;;;7.50;97.30;;;;;;5098408;28;20536;-82
2021/11/21 01:18:06;;;;;;;42.90;14.47;;;7.40;97.30;;;;;;5098361;28;20482;-82
2021/11/21 01:20:34;;;;;;;34.00;13.17;;;7.40;97.30;;;;;;5098984;28;20796;-83
2021/11/21 01:23:01;;;;;;;33.43;13.70;;;7.40;97.30;;;;;;5096280;28;20413;-84
2021/11/21 01:25:27;;;;;;;34.63;13.27;;;7.40;97.30;;;;;;5096121;28;20819;-83
2021/11/21 01:27:53;;;;;;;37.53;13.97;;;7.40;97.30;;;;;;5096839;28;20409;-83
2021/11/21 01:30:23;;;;;;;31.67;12.23;;;7.40;97.30;;;;;;5096546;28;20432;-83
2021/11/21 01:32:49;;;;;;;37.67;14.10;;;7.50;97.30;;;;;;5097384;28;20411;-83
2021/11/21 01:35:15;;;;;;;36.30;12.87;;;7.50;97.30;;;;;;5097058;28;20801;-83
2021/11/21 01:37:41;;;;;;;34.77;13.87;;;7.50;97.30;;;;;;5096566;28;20251;-83
2021/11/21 01:40:09;;;;;;;36.57;13.60;;;7.50;97.30;;;;;;5096610;28;20804;-83
2021/11/21 01:42:35;;;;;;;38.40;12.47;;;7.50;97.30;;;;;;5096362;28;20413;-82
2021/11/21 01:45:01;;;;;;;39.13;13.77;;;7.50;97.30;;;;;;5097887;28;20433;-81
2021/11/21 01:47:26;;;;;;;32.50;13.50;;;7.50;97.30;;;;;;5098175;28;20174;-81
2021/11/21 01:49:52;;;;;;;34.80;12.60;;;7.50;97.30;;;;;;5097227;28;20174;-82
2021/11/21 01:52:18;;;;;;;36.20;13.47;;;7.50;97.30;;;;;;5097778;28;20170;-81
2021/11/21 01:54:44;;;;;;;29.50;11.40;;;7.50;97.30;;;;;;5098130;28;20178;-82
2021/11/21 01:57:11;;;;;;;35.50;13.57;;;7.50;97.30;;;;;;5099111;28;20269;-82
2021/11/21 01:59:37;;;;;;;35.30;14.03;;;7.50;97.30;;;;;;5097430;28;20171;-82
2021/11/21 02:02:02;;;;;;;33.77;13.60;;;7.50;97.30;;;;;;5097648;28;20485;-81
2021/11/21 02:04:28;;;;;;;30.90;11.50;;;7.50;97.30;;;;;;5097323;28;20178;-82
2021/11/21 02:06:54;;;;;;;30.40;12.27;;;7.50;97.30;;;;;;5097005;28;20199;-82
2021/11/21 02:09:19;;;;;;;35.63;14.67;;;7.50;97.30;;;;;;5097547;28;20204;-83
2021/11/21 02:11:45;;;;;;;37.13;12.07;;;7.50;97.30;;;;;;5097136;28;20284;-82
2021/11/21 02:14:11;;;;;;;30.37;12.23;;;7.50;97.30;;;;;;5097535;28;20227;-81
2021/11/21 02:16:37;;;;;;;31.17;12.13;;;7.50;97.30;;;;;;5096481;28;20238;-81
2021/11/21 02:19:03;;;;;;;34.30;13.30;;;7.50;97.30;;;;;;5096744;28;20174;-81
2021/11/21 02:21:29;;;;;;;31.20;13.30;;;7.50;97.30;;;;;;5096841;28;20474;-81
2021/11/21 02:23:55;;;;;;;29.33;13.43;;;7.50;97.30;;;;;;5098535;28;20404;-81
2021/11/21 02:26:21;;;;;;;32.97;12.20;;;7.50;97.30;;;;;;5097012;28;20194;-81
2021/11/21 02:28:48;;;;;;;31.90;12.90;;;7.50;97.30;;;;;;5096935;28;20520;-81
2021/11/21 02:31:15;;;;;;;35.43;13.30;;;7.50;97.30;;;;;;5098085;28;20412;-81
2021/11/21 02:33:42;;;;;;;29.77;12.23;;;7.50;97.30;;;;;;5081490;28;20466;-81
2021/11/21 02:36:08;;;;;;;34.30;12.70;;;7.40;97.30;;;;;;5076543;28;20433;-82
2021/11/21 02:38:34;;;;;;;32.27;12.13;;;7.40;97.30;;;;;;5076087;28;20453;-82
2021/11/21 02:41:03;;;;;;;33.60;13.27;;;7.40;97.30;;;;;;5075450;28;20444;-82
2021/11/21 02:43:29;;;;;;;32.33;12.77;;;7.40;97.30;;;;;;5075065;28;20421;-82
2021/11/21 02:45:56;;;;;;;36.17;13.10;;;7.40;97.30;;;;;;5075259;28;20429;-82
2021/11/21 02:48:25;;;;;;;31.00;12.50;;;7.40;97.30;;;;;;5076275;28;20175;-82
2021/11/21 02:50:51;;;;;;;31.83;13.27;;;7.40;97.30;;;;;;5075367;28;20764;-82
2021/11/21 02:53:20;;;;;;;31.27;12.93;;;7.40;97.30;;;;;;5075680;28;20479;-82
2021/11/21 02:55:45;;;;;;;34.10;12.87;;;7.40;97.30;;;;;;5075445;28;20449;-82
2021/11/21 02:58:11;;;;;;;34.70;13.73;;;7.40;97.30;;;;;;5075345;28;20499;-81
2021/11/21 03:00:39;;;;;;;27.43;11.03;;;7.40;97.30;;;;;;5075380;28;20179;-82
2021/11/21 03:03:04;;;;;;;36.10;13.03;;;7.40;97.30;;;;;;5074879;28;20202;-82
2021/11/21 03:05:34;;;;;;;29.50;12.57;;;7.40;97.30;;;;;;5076485;28;20449;-82
2021/11/21 03:08:00;;;;;;;31.63;12.77;;;7.40;97.30;;;;;;5075402;28;20512;-81
2021/11/21 03:10:27;;;;;;;30.67;12.60;;;7.30;97.30;;;;;;5075259;28;20526;-82
2021/11/21 03:12:56;;;;;;;33.20;12.97;;;7.40;97.30;;;;;;5075328;28;20560;-80
2021/11/21 03:15:22;;;;;;;35.80;12.90;;;7.40;97.30;;;;;;5075298;28;20819;-82
2021/11/21 03:17:48;;;;;;;29.80;12.67;;;7.40;97.30;;;;;;5074191;28;20534;-82
2021/11/21 03:20:18;;;;;;;30.03;11.17;;;7.40;97.30;;;;;;5074862;28;20966;-83
2021/11/21 03:22:43;;;;;;;34.43;14.00;;;7.40;97.30;;;;;;5074812;28;20245;-81
2021/11/21 03:25:11;;;;;;;30.93;12.33;;;7.40;97.30;;;;;;5075384;28;20444;-82
2021/11/21 03:27:37;;;;;;;28.97;11.40;;;7.40;97.30;;;;;;5074848;28;20185;-83
2021/11/21 03:30:05;;;;;;;29.20;12.20;;;7.40;97.30;;;;;;5075235;28;20456;-82
2021/11/21 03:32:31;;;;;;;30.37;12.20;;;7.50;97.30;;;;;;5076460;28;20405;-81
2021/11/21 03:34:57;;;;;;;26.33;12.07;;;7.50;97.30;;;;;;5074988;28;20421;-82
2021/11/21 03:37:22;;;;;;;29.70;12.83;;;7.50;97.30;;;;;;5075139;28;20748;-81
2021/11/21 03:39:49;;;;;;;32.53;11.90;;;7.50;97.30;;;;;;5075184;28;20171;-82
2021/11/21 03:42:15;;;;;;;34.07;12.43;;;7.50;97.30;;;;;;5075464;28;20199;-82
2021/11/21 03:44:40;;;;;;;26.93;12.30;;;7.60;97.30;;;;;;5075287;28;20422;-82
2021/11/21 03:47:06;;;;;;;29.13;11.67;;;7.60;97.30;;;;;;5076502;28;20412;-82
2021/11/21 03:49:32;;;;;;;32.87;13.30;;;7.60;97.30;;;;;;5074842;28;20543;-82
2021/11/21 03:51:58;;;;;;;28.30;11.77;;;7.60;97.30;;;;;;5074916;28;20185;-81
2021/11/21 03:54:23;;;;;;;25.80;11.07;;;7.70;97.30;;;;;;5075113;28;20175;-81
2021/11/21 03:56:49;;;;;;;27.97;11.83;;;7.60;97.30;;;;;;5074968;28;20449;-81
2021/11/21 03:59:14;;;;;;;29.33;12.13;;;7.60;97.30;;;;;;5075216;28;20178;-80
2021/11/21 04:01:40;;;;;;;35.50;12.60;;;7.70;97.30;;;;;;5074991;28;20175;-80
2021/11/21 04:04:06;;;;;;;31.83;12.70;;;7.60;97.30;;;;;;5074739;28;20171;-80
2021/11/21 04:06:35;;;;;;;27.13;11.93;;;7.70;97.30;;;;;;5074605;28;20276;-80
2021/11/21 04:09:01;;;;;;;35.13;13.80;;;7.60;97.30;;;;;;5074055;28;20471;-80
2021/11/21 04:11:26;;;;;;;33.10;13.03;;;7.70;97.30;;;;;;5074626;28;20432;-81
2021/11/21 04:13:52;;;;;;;34.03;12.53;;;7.70;97.30;;;;;;5074364;28;20413;-80
2021/11/21 04:16:17;;;;;;;31.80;11.97;;;7.70;97.30;;;;;;5074440;28;20326;-80
2021/11/21 04:18:43;;;;;;;28.63;12.33;;;7.60;97.30;;;;;;5074003;28;20207;-80
2021/11/21 04:21:09;;;;;;;35.80;13.80;;;7.70;97.30;;;;;;5074663;28;20224;-80
2021/11/21 04:23:35;;;;;;;28.97;11.97;;;7.70;97.30;;;;;;5074178;28;20175;-79
2021/11/21 04:26:01;;;;;;;29.57;11.93;;;7.70;97.30;;;;;;5074709;28;20440;-80
2021/11/21 04:28:28;;;;;;;26.83;11.67;;;7.60;97.30;;;;;;5073952;28;20786;-81
2021/11/21 04:30:54;;;;;;;28.50;12.10;;;7.60;97.30;;;;;;5074640;28;20417;-81
2021/11/21 04:33:23;;;;;;;25.80;12.40;;;7.70;97.30;;;;;;5073634;28;20449;-82
2021/11/21 04:35:50;;;;;;;29.00;10.93;;;7.60;97.30;;;;;;5073711;28;20482;-82
2021/11/21 04:38:16;;;;;;;32.60;13.47;;;7.60;97.30;;;;;;5075326;28;20568;-82
2021/11/21 04:40:44;;;;;;;29.07;11.97;;;7.60;97.30;;;;;;5074444;28;20463;-81
2021/11/21 04:43:11;;;;;;;33.27;11.90;;;7.60;97.30;;;;;;5074751;28;20423;-81
2021/11/21 04:45:37;;;;;;;33.57;13.43;;;7.60;97.30;;;;;;5073885;28;20434;-81
2021/11/21 04:48:03;;;;;;;29.87;12.10;;;7.60;97.30;;;;;;5075088;28;20775;-81
2021/11/21 04:50:29;;;;;;;26.63;12.03;;;7.60;97.30;;;;;;5073679;28;20435;-82
2021/11/21 04:52:55;;;;;;;32.80;12.60;;;7.60;97.30;;;;;;5074067;28;20500;-82
2021/11/21 04:55:20;;;;;;;30.53;12.27;;;7.60;97.30;;;;;;5073562;28;20639;-81
2021/11/21 04:57:46;;;;;;;27.93;11.23;;;7.60;97.30;;;;;;5074199;28;20202;-82
2021/11/21 05:00:17;;;;;;;28.70;11.10;;;7.60;97.30;;;;;;5075363;28;20246;-80
2021/11/21 05:02:47;;;;;;;31.17;11.70;;;7.60;97.30;;;;;;5074391;28;20167;-81
2021/11/21 05:05:13;;;;;;;27.07;11.17;;;7.60;97.30;;;;;;5074318;28;20426;-81
2021/11/21 05:07:39;;;;;;;29.53;10.87;;;7.60;97.30;;;;;;5074023;28;20948;-81
2021/11/21 05:10:07;;;;;;;32.30;10.80;;;7.60;97.30;;;;;;5074600;28;20413;-81
2021/11/21 05:12:33;;;;;;;31.60;11.03;;;7.60;97.30;;;;;;5075583;28;20198;-81
2021/11/21 05:15:00;;;;;;;24.70;10.73;;;7.60;97.30;;;;;;5073826;28;20409;-82
2021/11/21 05:17:26;;;;;;;35.90;11.60;;;7.60;97.30;;;;;;5073382;28;20481;-83
2021/11/21 05:19:52;;;;;;;25.83;10.10;;;7.60;97.30;;;;;;5073428;28;20406;-82
2021/11/21 05:22:19;;;;;;;36.73;14.13;;;7.60;97.30;;;;;;5073106;28;20419;-82
2021/11/21 05:24:45;;;;;;;26.10;10.80;;;7.60;97.30;;;;;;5057303;28;20483;-82
2021/11/21 05:27:11;;;;;;;27.37;10.23;;;7.60;97.30;;;;;;5075592;28;20758;-81
2021/11/21 05:29:36;;;;;;;26.70;11.13;;;7.60;97.30;;;;;;5074172;28;20421;-81
2021/11/21 05:32:03;;;;;;;32.20;10.77;;;7.60;97.30;;;;;;5073948;28;20178;-81
2021/11/21 05:34:28;;;;;;;32.57;13.40;;;7.60;97.30;;;;;;5073944;28;20548;-82
2021/11/21 05:36:54;;;;;;;32.00;12.80;;;7.60;97.30;;;;;;5073291;28;20429;-80
2021/11/21 05:39:20;;;;;;;28.60;12.07;;;7.60;97.30;;;;;;5073837;28;20207;-80
2021/11/21 05:41:45;;;;;;;31.63;11.67;;;7.60;97.30;;;;;;5076038;28;20187;-81
2021/11/21 05:44:11;;;;;;;29.17;10.93;;;7.60;97.30;;;;;;5076847;28;20209;-81
2021/11/21 05:46:36;;;;;;;29.93;11.20;;;7.70;97.30;;;;;;5077355;28;20206;-81
2021/11/21 05:49:02;;;;;;;30.03;13.97;;;7.60;97.30;;;;;;5078509;28;20230;-82
2021/11/21 05:51:28;;;;;;;30.27;11.40;;;7.70;97.30;;;;;;5077454;28;20222;-81
2021/11/21 05:53:54;;;;;;;29.03;11.67;;;7.70;97.30;;;;;;5077828;28;20421;-81
2021/11/21 05:56:20;;;;;;;31.00;11.03;;;7.70;97.30;;;;;;5077158;28;20194;-81
2021/11/21 05:58:47;;;;;;;29.40;11.37;;;7.70;97.30;;;;;;5079455;28;21049;-81
2021/11/21 06:01:14;;;;;;;29.73;12.40;;;7.70;97.30;;;;;;5077462;28;20413;-80
2021/11/21 06:03:40;;;;;;;32.60;12.80;;;7.70;97.30;;;;;;5078959;28;20445;-81
2021/11/21 06:06:05;;;;;;;29.33;12.07;;;7.70;97.30;;;;;;5077222;28;20429;-81
2021/11/21 06:08:31;;;;;;;35.33;12.53;;;7.70;97.30;;;;;;5077906;28;20464;-82
2021/11/21 06:10:57;;;;;;;27.90;11.67;;;7.70;97.30;;;;;;5079167;28;20253;-81
2021/11/21 06:13:24;;;;;;;29.83;12.23;;;7.60;97.30;;;;;;5077505;28;20210;-81
2021/11/21 06:15:50;;;;;;;30.57;11.07;;;7.60;97.30;;;;;;5078387;28;20562;-82
2021/11/21 06:18:16;;;;;;;31.20;12.20;;;7.50;97.30;;;;;;5077470;28;20464;-81
2021/11/21 06:20:42;;;;;;;33.07;11.20;;;7.50;97.30;;;;;;5077744;28;20417;-81
2021/11/21 06:23:07;;;;;;;24.83;11.20;;;7.50;97.30;;;;;;5077025;28;20523;-82
2021/11/21 06:25:33;;;;;;;32.23;13.63;;;7.50;97.30;;;;;;5076420;28;20199;-82
2021/11/21 06:27:58;;;;;;;24.43;10.60;;;7.40;97.30;;;;;;5076915;28;20179;-81
2021/11/21 06:30:24;;;;;;;30.70;11.40;;;7.40;97.30;;;;;;5076833;28;20187;-82
2021/11/21 06:32:49;;;;;;;34.20;12.00;;;7.40;97.30;;;;;;5087902;28;20177;-82
2021/11/21 06:35:15;;;;;;;30.70;10.70;;;7.40;97.30;;;;;;5098125;28;20198;-82
2021/11/21 06:37:44;;;;;;;29.03;11.00;;;7.40;97.30;;;;;;5100193;28;20208;-81
2021/11/21 06:40:10;;;;;;;31.97;13.00;;;7.40;97.30;;;;;;5099774;28;20910;-81
2021/11/21 06:42:36;;;;;;;37.53;12.57;;;7.40;97.30;;;;;;5099265;28;20409;-81
2021/11/21 06:45:03;;;;;;;33.33;12.00;;;7.40;97.30;;;;;;5098151;28;20444;-83
2021/11/21 06:47:28;;;;;;;28.30;11.63;;;7.40;97.30;;;;;;5099304;28;20545;-81
2021/11/21 06:49:58;;;;;;;37.27;12.87;;;7.40;97.30;;;;;;5086345;28;20422;-81
2021/11/21 06:52:24;;;;;;;34.63;12.63;;;7.30;97.30;;;;;;5095783;28;20283;-80
2021/11/21 06:54:50;;;;;;;28.10;12.53;;;7.40;97.30;;;;;;5098441;28;20880;-82
2021/11/21 06:57:15;;;;;;;30.97;11.20;;;7.40;97.30;;;;;;5097067;28;20464;-83
2021/11/21 06:59:42;;;;;;;31.30;11.50;;;7.30;97.30;;;;;;5098260;28;20416;-81
2021/11/21 07:02:07;;;;;;;34.77;12.70;;;7.30;97.30;;;;;;5097858;28;20170;-81
2021/11/21 07:04:33;;;;;;;27.40;10.30;;;7.30;97.30;;;;;;5096833;28;20828;-81
2021/11/21 07:06:59;;;;;;;25.20;10.50;;;7.30;97.30;;;;;;5096560;28;20194;-81
2021/11/21 07:09:24;;;;;;;33.37;11.00;;;7.30;97.30;;;;;;5097372;28;20257;-82
2021/11/21 07:11:50;;;;;;;27.97;11.50;;;7.30;97.30;;;;;;5097074;28;20404;-81
2021/11/21 07:14:16;;;;;;;28.93;10.97;;;7.30;97.30;;;;;;5096410;28;20174;-81
2021/11/21 07:16:44;;;;;;;30.50;11.07;;;7.30;97.30;;;;;;5096276;28;20226;-82
2021/11/21 07:19:10;;;;;;;33.80;11.83;;;7.40;97.30;;;;;;5095288;28;20243;-81
2021/11/21 07:21:37;;;;;;;37.97;13.20;;;7.40;97.30;;;;;;5096870;28;20412;-82
2021/11/21 07:24:03;;;;;;;26.20;10.60;;;7.40;97.30;;;;;;5097412;28;20424;-82
2021/11/21 07:26:28;;;;;;;27.87;11.37;;;7.40;97.30;;;;;;5096407;28;20428;-82
2021/11/21 07:28:54;;;;;;;29.20;12.00;;;7.40;97.30;;;;;;5097124;28;20186;-83
2021/11/21 07:31:20;;;;;;;28.67;10.70;;;7.40;97.30;;;;;;5097055;28;20199;-82
2021/11/21 07:33:45;;;;;;;24.53;10.23;;;7.40;97.30;;;;;;5097263;28;20265;-81
2021/11/21 07:36:11;;;;;;;34.03;12.80;;;7.40;97.30;;;;;;5096830;28;20252;-81
2021/11/21 07:38:37;;;;;;;26.97;10.80;;;7.40;97.30;;;;;;5097847;28;20194;-82
2021/11/21 07:41:03;;;;;;;28.63;11.10;;;7.40;97.30;;;;;;5097460;28;20171;-81
2021/11/21 07:43:30;;;;;;;33.33;11.03;;;7.40;97.30;;;;;;5096951;28;20222;-83
2021/11/21 07:45:58;;;;;;;29.53;10.60;;;7.40;97.30;;;;;;5098781;28;20447;-82
2021/11/21 07:48:24;;;;;;;25.97;10.73;;;7.40;97.30;;;;;;5096355;28;20424;-81
2021/11/21 07:50:50;;;;;;;25.97;10.97;;;7.40;97.30;;;;;;5096179;28;20793;-82
2021/11/21 07:53:16;;;;;;;25.67;9.70;;;7.40;97.30;;;;;;5096265;28;20424;-81
2021/11/21 07:55:41;;;;;;;32.90;10.97;;;7.40;97.30;;;;;;5097593;28;20727;-82
2021/11/21 07:58:07;;;;;;;28.37;10.97;;;7.40;97.30;;;;;;5095853;28;20540;-80
2021/11/21 08:00:33;;;;;;;30.20;12.13;;;7.40;97.30;;;;;;5096031;28;20470;-80
2021/11/21 08:03:00;;;;;;;28.43;10.93;;;7.40;97.30;;;;;;5096187;28;20174;-81
2021/11/21 08:05:27;;;;;;;27.33;10.57;;;7.40;97.30;;;;;;5095822;28;20428;-81
2021/11/21 08:07:53;;;;;;;31.97;12.10;;;7.40;97.30;;;;;;5096565;28;20419;-81
2021/11/21 08:10:19;;;;;;;23.90;10.20;;;7.40;97.30;;;;;;5097730;28;20499;-80
2021/11/21 08:12:44;;;;;;;26.80;9.13;;;7.40;97.30;;;;;;5097153;28;20480;-80
2021/11/21 08:15:10;;;;;;;25.37;10.47;;;7.40;97.30;;;;;;5095712;28;20472;-81
2021/11/21 08:17:36;;;;;;;26.77;9.83;;;7.40;97.30;;;;;;5096270;28;20238;-82
2021/11/21 08:20:04;;;;;;;26.90;9.93;;;7.40;97.30;;;;;;5094881;28;20921;-80
2021/11/21 08:22:29;;;;;;;28.77;10.30;;;7.40;97.30;;;;;;5096360;28;20197;-81
2021/11/21 08:24:55;;;;;;;33.37;11.37;;;7.40;97.30;;;;;;5096501;28;20412;-83
2021/11/21 08:27:20;;;;;;;29.93;11.60;;;7.40;97.30;;;;;;5098253;28;20190;-83
2021/11/21 08:29:46;;;;;;;30.40;10.53;;;7.40;97.30;;;;;;5096174;28;20808;-81
2021/11/21 08:32:12;;;;;;;30.93;11.27;;;7.40;97.30;;;;;;5097055;28;20186;-83
2021/11/21 08:34:37;;;;;;;31.73;11.13;;;7.40;97.30;;;;;;5097651;28;20231;-82
2021/11/21 08:37:03;;;;;;;27.90;10.13;;;7.40;97.30;;;;;;5096527;28;20198;-83
2021/11/21 08:39:29;;;;;;;32.33;10.27;;;7.40;97.30;;;;;;5096610;28;20170;-84
2021/11/21 08:41:56;;;;;;;30.43;10.57;;;7.40;97.30;;;;;;5096079;28;20234;-81
2021/11/21 08:44:22;;;;;;;25.27;9.90;;;7.40;97.30;;;;;;5096443;28;20624;-83
2021/11/21 08:46:48;;;;;;;28.73;11.10;;;7.40;97.30;;;;;;5096631;28;20429;-81
2021/11/21 08:49:14;;;;;;;31.57;11.50;;;7.40;97.30;;;;;;5095646;28;20432;-82
2021/11/21 08:51:41;;;;;;;27.77;11.33;;;7.40;97.30;;;;;;5095074;28;20417;-82
2021/11/21 08:54:07;;;;;;;29.80;11.30;;;7.40;97.30;;;;;;5095412;28;20455;-82
2021/11/21 08:56:34;;;;;;;29.43;10.33;;;7.40;97.30;;;;;;5095420;28;20775;-83
2021/11/21 08:59:00;;;;;;;31.47;11.07;;;7.40;97.30;;;;;;5095221;28;20843;-82
2021/11/21 09:01:26;;;;;;;30.20;10.97;;;7.50;97.30;;;;;;5095461;28;20410;-80
2021/11/21 09:03:52;;;;;;;30.07;10.63;;;7.50;97.30;;;;;;5095341;28;20469;-83
2021/11/21 09:06:17;;;;;;;30.20;10.60;;;7.50;97.30;;;;;;5095054;28;20507;-84
2021/11/21 09:08:43;;;;;;;25.60;11.50;;;7.50;97.30;;;;;;5095139;28;20182;-83
2021/11/21 09:11:09;;;;;;;28.13;10.50;;;7.50;97.30;;;;;;5095109;28;20174;-83
2021/11/21 09:13:34;;;;;;;25.17;10.10;;;7.50;97.30;;;;;;5094485;28;20199;-84
2021/11/21 09:16:01;;;;;;;30.23;11.53;;;7.50;97.30;;;;;;5096388;28;20566;-84
2021/11/21 09:18:27;;;;;;;33.17;10.60;;;7.50;97.30;;;;;;5099865;28;20210;-83
2021/11/21 09:20:57;;;;;;;28.20;10.60;;;7.50;97.30;;;;;;5098798;28;20407;-83
2021/11/21 09:23:24;;;;;;;30.90;11.20;;;7.50;97.30;;;;;;5098852;28;20423;-82
2021/11/21 09:25:52;;;;;;;28.87;11.17;;;7.50;97.30;;;;;;5099011;28;20486;-83
2021/11/21 09:28:19;;;;;;;36.30;11.60;;;7.60;97.30;;;;;;5102621;28;20415;-82
2021/11/21 09:30:45;;;;;;;30.03;11.27;;;7.60;97.30;;;;;;5097887;28;20438;-82
2021/11/21 09:33:11;;;;;;;24.20;10.00;;;7.60;97.30;;;;;;5098049;28;20404;-83
2021/11/21 09:35:37;;;;;;;26.53;10.33;;;7.60;97.30;;;;;;5098321;28;20197;-83
2021/11/21 09:38:03;;;;;;;32.90;11.20;;;7.60;97.30;;;;;;5087410;28;20456;-83
2021/11/21 09:40:29;;;;;;;32.57;11.60;;;7.70;97.30;;;;;;5090624;28;20429;-83
2021/11/21 09:42:54;;;;;;;31.77;10.70;;;7.70;97.30;;;;;;5093121;28;20232;-82
2021/11/21 09:45:20;;;;;;;24.57;9.67;;;7.80;97.30;;;;;;5094424;28;20197;-82
2021/11/21 09:47:49;;;;;;;28.03;10.80;;;7.90;97.30;;;;;;5095742;28;20183;-82
2021/11/21 09:50:14;;;;;;;28.27;10.70;;;7.90;97.30;;;;;;5088147;28;20193;-82
2021/11/21 09:52:40;;;;;;;30.30;9.40;;;7.90;97.30;;;;;;5088140;28;20794;-82
2021/11/21 09:55:07;;;;;;;30.60;10.00;;;7.90;97.30;;;;;;5084804;28;20891;-81
2021/11/21 09:57:33;;;;;;;32.53;10.70;;;7.90;97.30;;;;;;5084627;28;20199;-83
2021/11/21 10:00:01;;;;;;;25.40;9.93;;;7.90;97.30;;;;;;5085568;28;20432;-83
2021/11/21 10:02:33;;;;;;;24.20;10.47;;;7.90;97.30;;;;;;5093326;28;20523;-83
2021/11/21 10:05:00;;;;;;;27.40;11.30;;;7.90;97.30;;;;;;5087737;28;20991;-83
2021/11/21 10:07:33;;;;;;;23.40;9.83;;;7.90;97.30;;;;;;5093162;28;20950;-83
2021/11/21 10:10:01;;;;;;;23.53;9.77;;;8.00;97.30;;;;;;5094295;28;20460;-83
2021/11/21 10:12:38;;;;;;;21.97;9.80;;;8.00;97.30;;;;;;5091398;28;20433;-83
2021/11/21 10:15:09;;;;;;;29.10;11.50;;;8.10;97.30;;;;;;5086124;28;20456;-82
2021/11/21 10:17:37;;;;;;;25.60;9.73;;;8.10;97.30;;;;;;5081887;28;20500;-83
2021/11/21 10:20:11;;;;;;;25.60;10.30;;;8.20;97.30;;;;;;5088527;28;20421;-82
2021/11/21 10:23:19;;;;;;;28.97;11.60;;;8.20;97.30;;;;;;5078011;28;20413;-83
2021/11/21 10:25:51;;;;;;;23.43;10.30;;;8.20;97.30;;;;;;5077667;28;20521;-82
2021/11/21 10:28:29;;;;;;;28.13;10.67;;;8.20;97.30;;;;;;5091969;28;20432;-82
2021/11/21 10:31:09;;;;;;;34.50;11.43;;;8.20;97.30;;;;;;5091947;28;20422;-82
2021/11/21 10:33:39;;;;;;;27.93;11.43;;;8.20;97.30;;;;;;5097123;28;20420;-82
2021/11/21 10:36:10;;;;;;;26.77;11.03;;;8.20;97.30;;;;;;5100134;28;20511;-82
2021/11/21 10:38:43;;;;;;;29.73;10.70;;;8.20;97.30;;;;;;5080025;28;20546;-82
2021/11/21 10:41:24;;;;;;;27.50;10.67;;;8.20;97.30;;;;;;5077776;28;20417;-85
2021/11/21 10:44:13;;;;;;;30.00;10.80;;;8.30;97.30;;;;;;5075899;28;20417;-85
2021/11/21 10:46:53;;;;;;;27.93;10.43;;;8.30;97.30;;;;;;5073679;28;20524;-84
2021/11/21 10:49:27;;;;;;;25.87;11.27;;;8.40;97.30;;;;;;5075209;28;20429;-83
2021/11/21 10:52:10;;;;;;;29.97;11.33;;;8.40;97.30;;;;;;5082107;28;20412;-85
2021/11/21 10:54:55;;;;;;;29.33;10.50;;;8.40;97.30;;;;;;5096332;28;20456;-85
2021/11/21 10:57:27;;;;;;;21.93;8.90;;;8.40;97.30;;;;;;5095684;28;20829;-84
2021/11/21 10:59:55;;;;;;;27.03;9.30;;;8.50;97.30;;;;;;5092753;28;20433;-85
2021/11/21 11:02:31;;;;;;;23.30;9.23;;;8.50;97.30;;;;;;5094998;28;20424;-85
2021/11/21 11:04:58;;;;;;;25.20;8.97;;;8.50;97.30;;;;;;5094405;28;20455;-84
2021/11/21 11:07:24;;;;;;;23.37;10.60;;;8.60;97.30;;;;;;5094897;28;21049;-84
2021/11/21 11:09:52;;;;;;;25.40;9.00;;;8.60;97.30;;;;;;5093322;28;20498;-85
2021/11/21 11:12:19;;;;;;;25.77;9.13;;;8.60;97.30;;;;;;5093800;28;20202;-85
2021/11/21 11:14:44;;;;;;;26.30;9.70;;;8.60;97.30;;;;;;5094885;28;20449;-82
2021/11/21 11:17:10;;;;;;;29.27;10.70;;;8.60;97.30;;;;;;5095382;28;20552;-85
2021/11/21 11:19:36;;;;;;;38.10;13.00;;;8.70;97.30;;;;;;5094371;28;20175;-84
2021/11/21 11:22:04;;;;;;;30.43;11.97;;;8.70;97.30;;;;;;5095988;28;20664;-85
2021/11/21 11:24:30;;;;;;;23.03;9.10;;;8.70;97.30;;;;;;5094067;28;20409;-85
2021/11/21 11:27:13;;;;;;;23.73;9.23;;;8.60;97.30;;;;;;5095497;28;20563;-84
2021/11/21 11:29:48;;;;;;;28.67;10.47;;;8.60;97.30;;;;;;5096165;28;20504;-84
2021/11/21 11:32:24;;;;;;;23.50;9.83;;;8.60;97.30;;;;;;5096878;28;20453;-84
2021/11/21 11:34:51;;;;;;;26.77;9.67;;;8.60;97.30;;;;;;5084842;28;21210;-83
2021/11/21 11:37:39;;;;;;;27.73;10.10;;;8.60;97.30;;;;;;5080050;28;20461;-85
2021/11/21 11:40:30;;;;;;;22.60;9.37;;;8.50;97.30;;;;;;5087630;28;20810;-85
2021/11/21 11:42:58;;;;;;;29.70;10.27;;;8.50;97.30;;;;;;5092575;28;20516;-84
2021/11/21 11:45:43;;;;;;;29.93;11.10;;;8.50;97.30;;;;;;5093172;28;20420;-85
2021/11/21 11:48:39;;;;;;;29.97;11.43;;;8.40;97.30;;;;;;5078732;28;20413;-84
2021/11/21 11:51:11;;;;;;;41.60;14.67;;;8.40;97.30;;;;;;5080782;28;20946;-85
2021/11/21 11:53:45;;;;;;;31.10;11.77;;;8.30;97.30;;;;;;5093692;28;20427;-86
2021/11/21 11:56:17;;;;;;;29.93;10.37;;;8.20;97.30;;;;;;5092278;28;20446;-84
2021/11/21 11:58:50;;;;;;;28.50;10.83;;;8.10;97.30;;;;;;5092081;28;20456;-85
2021/11/21 12:01:35;;;;;;;28.33;10.97;;;8.00;97.30;;;;;;5092189;28;20565;-85
2021/11/21 12:04:03;;;;;;;28.40;11.70;;;8.00;97.30;;;;;;5092337;28;20456;-85
2021/11/21 12:06:40;;;;;;;35.63;12.13;;;8.00;97.30;;;;;;5092107;28;20424;-85
2021/11/21 12:09:22;;;;;;;34.37;12.47;;;8.00;97.30;;;;;;5092929;28;20432;-85
2021/11/21 12:11:52;;;;;;;30.27;11.00;;;7.90;97.30;;;;;;5093450;28;20423;-85
2021/11/21 12:14:34;;;;;;;33.53;11.43;;;7.80;97.30;;;;;;5093499;28;20473;-85
2021/11/21 12:17:02;;;;;;;39.10;13.07;;;7.80;97.30;;;;;;5093244;28;20456;-85
2021/11/21 12:19:39;;;;;;;39.30;12.63;;;7.80;97.30;;;;;;5093264;28;20476;-85
2021/11/21 12:22:25;;;;;;;42.00;13.70;;;7.80;97.30;;;;;;5090395;28;20412;-84
2021/11/21 12:24:52;;;;;;;43.33;13.03;;;7.70;97.30;;;;;;5093272;28;20412;-84
2021/11/21 12:27:30;;;;;;;30.97;12.87;;;7.80;97.30;;;;;;5092984;28;20474;-84
2021/11/21 12:30:04;;;;;;;34.70;12.53;;;7.80;97.30;;;;;;5093354;28;20412;-85
2021/11/21 12:32:30;;;;;;;34.07;11.73;;;7.90;97.30;;;;;;5093135;28;20419;-85
2021/11/21 12:34:58;;;;;;;34.17;13.57;;;7.80;97.30;;;;;;5093157;28;20517;-85
2021/11/21 12:37:30;;;;;;;40.20;14.13;;;7.80;97.30;;;;;;5093254;28;20456;-85
2021/11/21 12:40:08;;;;;;;34.83;12.70;;;7.90;97.30;;;;;;5093058;28;21332;-85
2021/11/21 12:42:35;;;;;;;39.10;13.40;;;7.80;97.30;;;;;;5093574;28;20408;-84